Time;durP1;ratioP1;P1;durP2;ratioP2;P2;SDS_P1;SDS_P2;PMS_P1;PMS_P2;Temp;Humidity;BMP_temperature;BMP_pressure;BME280_temperature;BME280_humidity;BME280_pressure;Samples;Min_cycle;Max_cycle;Signal;HPM_P1;HPM_P2
2022/03/19 00:04:30;;;;;;;16.63;8.77;;;;;;;-4.00;78.66;102052.16;10371615;28;20038;-78
2022/03/19 00:09:30;;;;;;;21.50;10.82;;;;;;;-3.87;78.68;102081.28;10379521;28;20038;-78
2022/03/19 00:14:31;;;;;;;14.27;7.18;;;;;;;-4.54;78.44;101960.78;10379069;28;20041;-77
2022/03/19 00:19:32;;;;;;;21.27;9.32;;;;;;;-3.83;79.10;102075.13;10379113;28;20560;-78
2022/03/19 00:24:35;;;;;;;20.25;7.90;;;;;;;-3.62;78.91;102130.97;10378144;28;20132;-77
2022/03/19 00:29:36;;;;;;;24.33;10.85;;;;;;;-3.17;79.43;102198.41;10378980;28;20092;-78
2022/03/19 00:34:36;;;;;;;25.45;10.30;;;;;;;-3.50;79.10;102137.63;10379374;28;20453;-77
2022/03/19 00:39:37;;;;;;;11.57;6.18;;;;;;;-3.12;79.40;102191.34;10378165;28;20441;-78
2022/03/19 00:44:38;;;;;;;9.98;4.38;;;;;;;-3.08;79.57;102211.19;10379411;28;20474;-79
2022/03/19 00:49:39;;;;;;;8.15;4.10;;;;;;;-4.66;79.54;101933.34;10377791;28;20145;-78
2022/03/19 00:54:40;;;;;;;19.48;8.60;;;;;;;-2.92;79.73;102216.91;10377969;28;20042;-77
2022/03/19 00:59:40;;;;;;;11.75;6.93;;;;;;;-2.74;79.61;102233.81;10377916;28;20038;-77
2022/03/19 01:04:41;;;;;;;11.20;6.80;;;;;;;-2.77;79.69;102239.94;10377855;28;20383;-78
2022/03/19 01:09:42;;;;;;;10.93;6.25;;;;;;;-3.21;79.28;102148.22;10377548;28;20532;-78
2022/03/19 01:14:43;;;;;;;9.77;6.70;;;;;;;-2.97;79.34;102191.88;10376578;28;20046;-78
2022/03/19 01:19:52;;;;;;;8.65;5.82;;;;;;;-4.42;79.13;101960.50;10376520;28;20116;-78
2022/03/19 01:24:53;;;;;;;11.20;6.22;;;;;;;-3.01;79.43;102191.09;10377148;28;20050;-78
2022/03/19 01:29:54;;;;;;;10.75;5.70;;;;;;;-3.75;79.16;102056.81;10376611;28;20485;-78
2022/03/19 01:34:55;;;;;;;11.95;6.00;;;;;;;-2.92;79.54;102196.09;10376696;28;20096;-78
2022/03/19 01:39:57;;;;;;;8.88;5.63;;;;;;;-2.74;79.34;102231.22;10375486;28;20061;-78
2022/03/19 01:44:58;;;;;;;9.77;5.43;;;;;;;-2.71;79.52;102230.28;10375761;28;20123;-78
2022/03/19 01:49:59;;;;;;;10.90;5.00;;;;;;;-2.70;79.45;102237.19;10375554;28;20564;-78
2022/03/19 01:55:00;;;;;;;10.40;5.63;;;;;;;-3.10;79.56;102186.97;10375437;28;20136;-78
2022/03/19 02:00:03;;;;;;;5.10;3.30;;;;;;;-4.03;79.78;102021.06;10375007;28;20038;-78
2022/03/19 02:05:05;;;;;;;13.50;6.53;;;;;;;-3.29;79.83;102162.28;10375593;28;20044;-78
2022/03/19 02:10:07;;;;;;;13.43;5.75;;;;;;;-2.77;79.77;102232.13;10374680;28;20045;-78
2022/03/19 02:15:09;;;;;;;6.68;2.95;;;;;;;-2.94;80.36;102218.66;10375610;28;20040;-79
2022/03/19 02:20:11;;;;;;;12.05;5.07;;;;;;;-2.93;79.89;102215.19;10374474;28;20044;-78
2022/03/19 02:30:32;;;;;;;13.75;6.28;;;;;;;-2.99;79.71;102195.38;10373501;28;20042;-78
2022/03/19 02:35:32;;;;;;;16.65;7.97;;;;;;;-2.86;79.79;102221.09;10374382;28;20073;-78
2022/03/19 02:40:33;;;;;;;15.57;5.93;;;;;;;-2.90;79.52;102204.72;10373507;28;20474;-78
2022/03/19 02:45:34;;;;;;;8.60;3.53;;;;;;;-3.38;79.22;102108.78;10373561;28;20077;-78
2022/03/19 02:50:36;;;;;;;11.38;5.97;;;;;;;-2.87;79.25;102199.44;10374202;28;20038;-78
2022/03/19 02:55:39;;;;;;;6.22;2.45;;;;;;;-4.26;78.79;101961.88;10373661;28;20046;-79
2022/03/19 03:00:40;;;;;;;10.32;6.22;;;;;;;-2.72;79.18;102223.34;10373438;28;20049;-78
2022/03/19 03:05:41;;;;;;;9.25;4.93;;;;;;;-3.01;78.72;102175.50;10372647;28;20048;-79
2022/03/19 03:10:42;;;;;;;5.05;2.67;;;;;;;-3.74;78.76;102059.38;10373417;28;20038;-79
2022/03/19 03:15:43;;;;;;;15.55;8.30;;;;;;;-2.59;78.88;102256.00;10372349;28;20133;-78
2022/03/19 03:20:44;;;;;;;14.57;7.07;;;;;;;-3.85;78.54;102061.34;10372907;28;20144;-78
2022/03/19 03:25:44;;;;;;;11.13;4.78;;;;;;;-2.61;78.88;102278.59;10372968;28;20132;-78
2022/03/19 03:30:45;;;;;;;7.70;4.38;;;;;;;-2.74;78.69;102246.81;10372815;28;20041;-78
2022/03/19 03:35:46;;;;;;;7.18;4.22;;;;;;;-2.92;78.69;102229.06;10373025;28;20046;-78
2022/03/19 03:40:47;;;;;;;10.98;5.30;;;;;;;-3.07;78.20;102196.44;10372575;28;20144;-78
2022/03/19 03:45:48;;;;;;;7.95;4.22;;;;;;;-2.52;78.75;102278.38;10372364;28;20038;-78
2022/03/19 03:50:52;;;;;;;8.65;3.90;;;;;;;-2.50;78.82;102280.97;10373203;28;20042;-79
2022/03/19 03:55:53;;;;;;;6.93;4.82;;;;;;;-3.99;79.12;102034.84;10372710;28;20045;-79
2022/03/19 04:00:55;;;;;;;10.57;4.32;;;;;;;-3.49;78.87;102108.16;10371870;28;20136;-78
2022/03/19 04:05:56;;;;;;;7.35;3.65;;;;;;;-3.47;78.58;102103.78;10371800;28;20121;-79
2022/03/19 04:10:57;;;;;;;8.25;4.50;;;;;;;-2.64;78.52;102234.44;10371877;28;20133;-78
2022/03/19 04:15:58;;;;;;;9.70;5.05;;;;;;;-3.06;78.33;102173.00;10371810;28;20540;-79
2022/03/19 04:20:58;;;;;;;8.45;4.50;;;;;;;-2.35;78.46;102268.41;10343401;28;20050;-78
2022/03/19 04:25:59;;;;;;;7.20;3.88;;;;;;;-2.57;78.10;102217.81;10355679;28;20041;-79
2022/03/19 04:31:00;;;;;;;14.60;4.40;;;;;;;-3.08;78.16;102111.53;10364277;28;20045;-79
2022/03/19 04:41:20;;;;;;;5.10;2.80;;;;;;;-1.99;78.03;102285.75;10362738;28;20088;-79
2022/03/19 04:46:21;;;;;;;7.45;3.50;;;;;;;-1.80;77.15;102302.59;10356838;28;20049;-77
2022/03/19 04:51:30;;;;;;;5.85;3.08;;;;;;;-1.95;76.80;102269.16;10356682;28;20034;-80
2022/03/19 04:56:31;;;;;;;7.50;3.65;;;;;;;-2.24;75.75;102223.91;10367041;28;20136;-80
2022/03/19 05:01:33;;;;;;;6.65;2.15;;;;;;;-2.57;76.15;102137.16;10363748;28;20619;-80
2022/03/19 05:06:33;;;;;;;5.47;1.58;;;;;;;-1.82;75.35;102249.72;10365036;28;20494;-80
2022/03/19 05:11:35;;;;;;;6.22;2.40;;;;;;;-1.75;75.53;102250.38;10370036;28;20128;-78
2022/03/19 05:16:36;;;;;;;5.00;2.80;;;;;;;-1.85;75.10;102229.81;10368303;28;20065;-77
2022/03/19 05:21:37;;;;;;;3.20;1.88;;;;;;;-1.15;74.53;102283.44;10364879;28;20057;-79
2022/03/19 05:26:38;;;;;;;5.75;2.33;;;;;;;-2.01;73.46;102111.28;10346303;28;20044;-79
2022/03/19 05:31:39;;;;;;;6.93;3.58;;;;;;;-0.97;72.66;102256.78;10335738;28;20034;-78
2022/03/19 05:36:40;;;;;;;5.28;2.40;;;;;;;-0.60;70.62;102252.16;10355125;28;20038;-80
2022/03/19 05:41:40;;;;;;;3.60;1.58;;;;;;;-0.71;69.40;102182.06;10346396;28;20061;-79
2022/03/19 05:46:41;;;;;;;4.15;1.80;;;;;;;-1.07;68.01;102122.34;10374324;28;20045;-84
2022/03/19 05:51:43;;;;;;;2.58;1.60;;;;;;;0.03;68.14;102269.22;10364602;28;20049;-81
2022/03/19 05:56:43;;;;;;;6.57;2.17;;;;;;;-0.87;67.15;102113.84;10369198;28;20164;-81
2022/03/19 06:01:45;;;;;;;4.78;1.92;;;;;;;0.51;66.62;102254.44;10357750;28;20141;-83
2022/03/19 06:06:47;;;;;;;3.13;1.63;;;;;;;-0.02;64.61;102183.16;10357544;28;20046;-84
2022/03/19 06:11:47;;;;;;;6.30;1.70;;;;;;;0.72;62.38;102237.09;10353619;28;20441;-81
2022/03/19 06:16:49;;;;;;;4.30;2.10;;;;;;;0.71;62.78;102259.78;10351257;28;20050;-84
2022/03/19 06:21:50;;;;;;;3.88;1.35;;;;;;;0.27;60.61;102183.88;10375057;28;20072;-87
2022/03/19 06:26:51;;;;;;;4.20;2.28;;;;;;;0.93;61.37;102272.06;10361577;28;20084;-85
2022/03/19 06:31:52;;;;;;;3.38;1.50;;;;;;;1.16;59.35;102292.13;10360323;28;20164;-87
2022/03/19 06:42:11;;;;;;;4.93;1.83;;;;;;;0.32;59.34;102113.94;10361198;28;20509;-83
2022/03/19 06:47:13;;;;;;;8.77;2.90;;;;;;;0.89;59.88;102154.44;10356986;28;20049;-82
2022/03/19 06:52:13;;;;;;;5.10;2.60;;;;;;;1.67;58.96;102278.69;10362662;28;20408;-84
2022/03/19 06:57:14;;;;;;;3.67;1.40;;;;;;;1.29;57.24;102243.63;10361850;28;20038;-81
2022/03/19 07:02:15;;;;;;;4.38;1.95;;;;;;;1.00;57.93;102192.41;10361500;28;20056;-82
2022/03/19 07:07:17;;;;;;;4.00;2.05;;;;;;;0.69;57.85;102115.16;10358945;28;20099;-80
2022/03/19 07:12:18;;;;;;;4.30;1.30;;;;;;;0.45;57.13;102072.53;10358353;28;20501;-80
2022/03/19 07:17:19;;;;;;;8.48;2.78;;;;;;;1.58;57.65;102282.53;10358037;28;20073;-82
2022/03/19 07:22:19;;;;;;;6.28;2.50;;;;;;;0.42;57.76;102101.41;10362100;28;20046;-81
2022/03/19 07:27:20;;;;;;;5.43;3.13;;;;;;;1.60;57.32;102279.88;10362423;28;20042;-81
2022/03/19 07:32:21;;;;;;;4.82;2.45;;;;;;;-0.11;57.96;101960.59;10359440;28;20449;-81
2022/03/19 07:37:22;;;;;;;9.38;3.20;;;;;;;1.92;56.32;102268.06;10358419;28;20490;-74
2022/03/19 07:42:24;;;;;;;4.85;2.20;;;;;;;1.93;55.51;102240.94;10353900;28;20152;-79
2022/03/19 07:47:24;;;;;;;8.32;3.15;;;;;;;0.97;56.13;102057.31;10354796;28;20050;-79
2022/03/19 07:52:25;;;;;;;5.43;1.45;;;;;;;2.49;55.40;102218.38;10341057;28;20498;-79
2022/03/19 07:57:26;;;;;;;6.50;2.20;;;;;;;1.63;54.53;102119.09;10359173;28;20042;-78
2022/03/19 08:02:27;;;;;;;3.95;2.40;;;;;;;2.59;54.37;102253.75;10356388;28;20157;-78
2022/03/19 08:07:28;;;;;;;4.13;1.75;;;;;;;2.78;53.43;102252.91;10358482;28;20406;-76
2022/03/19 08:12:29;;;;;;;10.10;3.55;;;;;;;2.39;54.17;102177.72;10357942;28;20046;-77
2022/03/19 08:17:30;;;;;;;4.93;1.65;;;;;;;2.83;54.21;102228.16;10348116;28;20096;-79
2022/03/19 08:22:31;;;;;;;6.20;2.85;;;;;;;2.68;54.26;102200.84;10358298;28;20074;-75
2022/03/19 08:27:32;;;;;;;5.65;1.42;;;;;;;1.28;53.67;101946.88;10354463;28;20515;-75
2022/03/19 08:32:32;;;;;;;5.35;2.75;;;;;;;2.12;53.79;102081.06;10356786;28;20046;-80
2022/03/19 08:37:34;;;;;;;7.65;2.55;;;;;;;2.95;53.91;102237.22;10357542;28;20132;-77
2022/03/19 08:42:36;;;;;;;7.80;3.17;;;;;;;1.76;54.03;102042.50;10365867;28;20507;-75
2022/03/19 08:51:56;;;;;;;4.38;1.85;;;;;;;2.46;52.89;102126.72;10478124;28;20440;-76
2022/03/19 08:56:56;;;;;;;3.47;1.63;;;;;;;2.59;52.61;102109.44;10444100;28;20504;-74
2022/03/19 09:06:42;;;;;;;7.13;2.75;;;;;;;3.62;53.11;102212.94;10477222;28;20441;-78
2022/03/19 09:11:43;;;;;;;7.25;2.10;;;;;;;2.98;52.14;102072.53;10454931;28;20132;-73
2022/03/19 09:16:45;;;;;;;5.50;2.33;;;;;;;3.86;52.26;102223.16;10442966;28;20068;-76
2022/03/19 09:21:45;;;;;;;5.25;2.20;;;;;;;3.78;52.39;102196.38;10452529;28;20049;-75
2022/03/19 09:26:46;;;;;;;6.57;2.67;;;;;;;3.84;51.21;102193.44;10453382;28;20057;-77
2022/03/19 09:31:47;;;;;;;3.95;1.90;;;;;;;3.52;52.05;102158.28;10454721;28;20045;-77
2022/03/19 09:36:48;;;;;;;5.03;1.73;;;;;;;3.76;52.06;102179.84;10454332;28;20044;-78
2022/03/19 09:41:50;;;;;;;5.47;2.50;;;;;;;4.11;52.33;102197.25;10452977;28;20132;-75
2022/03/19 09:46:52;;;;;;;8.73;2.80;;;;;;;4.51;50.22;102197.75;10447099;28;20045;-78
2022/03/19 09:51:54;;;;;;;6.40;3.40;;;;;;;4.41;50.59;102193.09;10443957;28;20056;-77
2022/03/19 09:56:57;;;;;;;6.88;3.13;;;;;;;4.57;50.07;102191.31;10456461;28;20145;-76
2022/03/19 10:01:58;;;;;;;8.77;3.28;;;;;;;4.30;49.51;102180.50;10448644;28;20068;-76
2022/03/19 10:12:28;;;;;;;11.40;3.08;;;;;;;3.35;50.89;102070.69;10451760;28;20390;-76
2022/03/19 10:17:34;;;;;;;11.13;2.80;;;;;;;4.10;51.11;102186.84;10424509;28;20050;-76
2022/03/19 10:22:39;;;;;;;10.05;2.65;;;;;;;4.37;50.52;102183.63;10426980;28;20048;-76
2022/03/19 10:27:42;;;;;;;7.28;2.33;;;;;;;4.48;49.63;102184.75;10424496;28;20048;-76
2022/03/19 10:32:47;;;;;;;4.63;1.80;;;;;;;4.20;49.77;102156.47;10424507;28;20493;-76
2022/03/19 10:37:48;;;;;;;2.78;1.58;;;;;;;4.38;50.17;102183.56;10420491;28;20041;-76
2022/03/19 10:42:55;;;;;;;4.22;2.05;;;;;;;2.99;51.06;102044.50;10417472;28;20057;-75
2022/03/19 10:47:56;;;;;;;2.65;1.55;;;;;;;3.46;50.98;102108.69;10414317;28;20056;-76
2022/03/19 10:53:00;;;;;;;8.25;2.28;;;;;;;4.17;51.28;102169.78;10423886;28;20048;-76
2022/03/19 10:58:02;;;;;;;7.83;2.47;;;;;;;3.87;51.16;102170.47;10422344;28;20049;-76
2022/03/19 11:03:10;;;;;;;11.60;3.17;;;;;;;3.62;51.30;102106.94;10423015;28;20496;-74
2022/03/19 11:08:13;;;;;;;8.90;2.08;;;;;;;2.79;51.72;102034.16;10418851;28;20383;-75
2022/03/19 11:13:20;;;;;;;13.88;2.15;;;;;;;3.46;51.10;102130.53;10423038;28;20124;-75
2022/03/19 11:18:21;;;;;;;4.60;2.03;;;;;;;3.74;51.24;102176.44;10420429;28;20497;-78
2022/03/19 11:23:36;;;;;;;10.98;2.85;;;;;;;3.69;51.99;102165.31;10423980;28;20076;-76
2022/03/19 11:28:37;;;;;;;12.65;3.97;;;;;;;3.39;52.09;102129.16;10399092;28;20144;-79
2022/03/19 11:33:39;;;;;;;8.80;3.08;;;;;;;3.48;52.47;102156.75;10405485;28;20080;-78
2022/03/19 11:38:50;;;;;;;3.75;1.65;;;;;;;2.69;52.55;102045.13;10406813;28;20051;-78
2022/03/19 11:44:24;;;;;;;9.30;2.65;;;;;;;3.40;53.31;102191.28;10414066;28;20461;-78
2022/03/19 11:49:54;;;;;;;14.43;4.07;;;;;;;2.98;53.62;102150.44;10414943;28;20107;-77
2022/03/19 11:55:05;;;;;;;10.18;2.40;;;;;;;3.20;53.48;102172.13;10414404;28;20116;-77
2022/03/19 12:00:06;;;;;;;16.38;5.45;;;;;;;3.18;54.50;102179.22;10415149;28;20033;-78
2022/03/19 12:05:16;;;;;;;5.18;1.65;;;;;;;3.10;53.92;102180.50;10414997;28;20103;-77
2022/03/19 12:10:24;;;;;;;10.98;2.30;;;;;;;2.28;54.55;102061.06;10411967;28;20041;-77
2022/03/19 12:15:34;;;;;;;10.45;2.00;;;;;;;2.96;54.79;102183.78;10395564;28;20038;-77
2022/03/19 12:20:42;;;;;;;9.48;2.17;;;;;;;2.81;54.76;102158.28;10394403;28;20053;-79
2022/03/19 12:25:49;;;;;;;7.13;1.75;;;;;;;2.69;54.44;102133.47;10386027;28;20042;-78
2022/03/19 12:30:50;;;;;;;8.50;2.45;;;;;;;1.45;55.20;101896.38;10372428;28;20120;-79
2022/03/19 12:35:51;;;;;;;11.52;1.45;;;;;;;3.04;54.60;102131.78;10371220;28;20041;-80
2022/03/19 12:46:20;;;;;;;7.07;2.05;;;;;;;2.81;53.45;102013.94;10408175;28;20144;-78
2022/03/19 12:51:26;;;;;;;6.28;2.17;;;;;;;3.55;53.16;102160.75;10412926;28;20091;-78
2022/03/19 12:56:29;;;;;;;7.63;1.55;;;;;;;2.83;52.22;102033.94;10412270;28;20112;-77
2022/03/19 13:01:30;;;;;;;13.77;2.03;;;;;;;3.27;51.08;102122.75;10412091;28;20445;-79
2022/03/19 13:06:36;;;;;;;11.82;2.45;;;;;;;3.37;51.75;102154.66;10412216;28;20144;-78
2022/03/19 13:11:47;;;;;;;6.15;2.22;;;;;;;3.07;51.60;102126.38;10411439;28;20081;-78
2022/03/19 13:16:51;;;;;;;7.22;1.13;;;;;;;2.88;51.60;102108.06;10406477;28;20152;-76
2022/03/19 13:21:55;;;;;;;23.27;2.90;;;;;;;3.24;52.40;102151.81;10396757;28;20055;-79
2022/03/19 13:26:57;;;;;;;6.78;2.15;;;;;;;2.89;51.76;102088.75;10357469;28;20065;-75
2022/03/19 13:32:01;;;;;;;11.35;2.15;;;;;;;2.24;52.56;101988.72;10409323;28;20080;-78
2022/03/19 13:37:03;;;;;;;16.85;1.73;;;;;;;3.30;52.22;102161.16;10405440;28;20046;-76
2022/03/19 13:42:18;;;;;;;11.63;1.45;;;;;;;2.46;52.11;102029.66;10397573;28;20048;-77
2022/03/19 13:47:22;;;;;;;27.02;3.05;;;;;;;2.34;52.94;102030.25;10390917;28;20500;-75
2022/03/19 13:52:46;;;;;;;4.32;1.85;;;;;;;2.57;52.85;102056.19;10391827;28;20038;-75
2022/03/19 13:57:49;;;;;;;11.63;1.90;;;;;;;3.04;52.66;102141.44;10382035;28;20140;-74
2022/03/19 14:03:03;;;;;;;13.68;3.03;;;;;;;3.04;53.11;102147.53;10379251;28;20115;-75
2022/03/19 14:08:10;;;;;;;6.32;2.40;;;;;;;3.00;53.14;102148.59;10378089;28;20120;-76
2022/03/19 14:13:18;;;;;;;10.63;2.92;;;;;;;3.01;53.48;102149.44;10378624;28;20129;-75
2022/03/19 14:18:30;;;;;;;7.80;2.10;;;;;;;2.74;53.56;102115.75;10377986;28;20038;-75
2022/03/19 14:23:33;;;;;;;19.80;4.85;;;;;;;1.86;53.83;101981.84;10377654;28;20092;-76
2022/03/19 14:28:37;;;;;;;12.77;3.67;;;;;;;2.62;54.23;102116.31;10377945;28;20401;-75
2022/03/19 14:33:37;;;;;;;8.52;2.63;;;;;;;1.83;53.56;102002.00;10377308;28;20533;-75
2022/03/19 14:38:45;;;;;;;14.55;3.67;;;;;;;2.45;54.17;102119.75;10376652;28;20042;-75
2022/03/19 14:43:48;;;;;;;12.13;3.13;;;;;;;2.45;54.49;102143.34;10375716;28;20152;-75
2022/03/19 14:48:48;;;;;;;10.02;3.05;;;;;;;2.34;54.75;102137.78;10377394;28;20418;-76
2022/03/19 14:53:49;;;;;;;5.25;1.77;;;;;;;1.85;54.85;102077.06;10377974;28;20038;-76
2022/03/19 14:58:51;;;;;;;12.98;2.05;;;;;;;2.12;55.86;102149.22;10376177;28;20120;-75
2022/03/19 15:03:53;;;;;;;17.15;3.42;;;;;;;1.50;56.21;102066.41;10376579;28;20061;-76
2022/03/19 15:08:57;;;;;;;20.80;5.95;;;;;;;1.39;57.10;102086.97;10375677;28;20048;-76
2022/03/19 15:13:59;;;;;;;31.52;12.52;;;;;;;1.71;58.09;102165.03;10376048;28;20124;-76
2022/03/19 15:19:00;;;;;;;9.85;3.13;;;;;;;0.55;58.60;101984.09;10375355;28;20046;-76
2022/03/19 15:24:03;;;;;;;15.90;2.92;;;;;;;1.49;58.86;102162.44;10375649;28;20046;-77
2022/03/19 15:29:04;;;;;;;13.63;2.75;;;;;;;1.01;58.58;102110.38;10375002;28;20042;-76
2022/03/19 15:34:05;;;;;;;13.00;2.33;;;;;;;1.29;58.38;102167.69;10373626;28;20052;-77
2022/03/19 15:39:07;;;;;;;7.35;2.10;;;;;;;0.17;58.35;101991.69;10411385;28;20080;-76
2022/03/19 15:44:07;;;;;;;11.85;2.70;;;;;;;0.15;58.21;102010.06;10453266;28;20053;-76
2022/03/19 15:49:09;;;;;;;13.25;2.30;;;;;;;0.91;58.74;102157.84;10422987;28;20481;-77
2022/03/19 15:54:10;;;;;;;11.82;2.20;;;;;;;0.76;59.39;102155.00;10407175;28;20077;-77
2022/03/19 15:59:10;;;;;;;10.23;2.50;;;;;;;0.15;59.75;102082.38;10373687;28;20506;-76
2022/03/19 16:04:13;;;;;;;12.20;2.40;;;;;;;0.40;59.63;102158.97;10373878;28;20140;-76
2022/03/19 16:09:17;;;;;;;12.60;3.08;;;;;;;0.04;60.62;102126.38;10373341;28;20053;-76
2022/03/19 16:14:18;;;;;;;;;;;;;;;0.16;59.85;102162.50;10373718;28;20038;-76
2022/03/19 16:19:18;;;;;;;13.13;3.53;;;;;;;-0.95;61.12;102014.97;10374122;28;19925;-77
2022/03/19 16:24:19;;;;;;;19.38;3.75;;;;;;;-1.15;60.64;102007.84;10373976;28;20140;-77
2022/03/19 16:29:20;;;;;;;8.55;2.70;;;;;;;-1.01;61.13;102051.72;10406461;28;20034;-76
2022/03/19 16:34:21;;;;;;;14.13;2.30;;;;;;;-0.34;60.93;102178.19;10414078;28;20037;-76
2022/03/19 16:39:22;;;;;;;7.38;2.70;;;;;;;-1.71;61.61;101952.38;10413894;28;20044;-77
2022/03/19 16:44:23;;;;;;;13.93;3.30;;;;;;;-0.58;61.93;102162.47;10413982;28;20099;-77
2022/03/19 16:49:24;;;;;;;10.27;3.15;;;;;;;-0.59;61.59;102173.81;10386023;28;20050;-77
2022/03/19 16:54:25;;;;;;;15.55;2.63;;;;;;;-0.94;62.74;102148.88;10379876;28;20489;-75
2022/03/19 16:59:25;;;;;;;7.22;2.45;;;;;;;-0.91;62.27;102187.91;10396157;28;20056;-76
2022/03/19 17:04:26;;;;;;;16.58;2.47;;;;;;;-2.41;62.92;101966.66;10406105;28;20065;-76
2022/03/19 17:09:29;;;;;;;17.15;3.17;;;;;;;-1.32;62.85;102178.75;10411821;28;20041;-76
2022/03/19 17:14:29;;;;;;;22.02;5.47;;;;;;;-1.62;63.57;102163.13;10412040;28;20497;-77
2022/03/19 17:19:30;;;;;;;12.90;3.63;;;;;;;-1.49;63.43;102206.19;10412420;28;20037;-80
2022/03/19 17:24:33;;;;;;;15.50;3.00;;;;;;;-1.57;63.38;102209.94;10405262;28;20164;-76
2022/03/19 17:29:33;;;;;;;12.82;3.10;;;;;;;-1.80;63.84;102189.72;10398505;28;20041;-77
2022/03/19 17:34:34;;;;;;;14.02;2.55;;;;;;;-2.65;64.82;102079.25;10398564;28;20037;-76
2022/03/19 17:39:35;;;;;;;12.10;2.13;;;;;;;-1.88;65.21;102214.25;10386403;28;20168;-76
2022/03/19 17:44:36;;;;;;;8.52;2.22;;;;;;;-3.17;64.77;102024.25;10395675;28;20038;-78
2022/03/19 17:49:37;;;;;;;16.65;3.28;;;;;;;-2.17;65.39;102217.63;10395584;28;20404;-77
2022/03/19 17:54:38;;;;;;;9.05;2.25;;;;;;;-2.31;65.04;102199.75;10406243;28;20045;-78
2022/03/19 17:59:38;;;;;;;12.30;4.07;;;;;;;-2.37;65.47;102205.13;10408556;28;20049;-77
2022/03/19 18:04:39;;;;;;;12.00;2.53;;;;;;;-2.22;66.16;102226.47;10419809;28;20189;-77
2022/03/19 18:09:40;;;;;;;9.23;2.38;;;;;;;-2.80;66.67;102148.97;10419405;28;20622;-78
2022/03/19 18:14:41;;;;;;;12.65;2.28;;;;;;;-3.50;66.99;102042.38;10417875;28;20064;-76
2022/03/19 18:19:42;;;;;;;13.73;2.53;;;;;;;-2.49;67.04;102221.06;10418832;28;20030;-77
2022/03/19 18:24:43;;;;;;;9.85;2.33;;;;;;;-3.61;67.64;102048.72;10418809;28;20049;-77
2022/03/19 18:29:44;;;;;;;15.95;2.60;;;;;;;-2.78;68.48;102206.19;10419779;28;20036;-77
2022/03/19 18:34:49;;;;;;;11.45;2.85;;;;;;;-2.63;68.77;102234.41;10418480;28;20038;-77
2022/03/19 18:39:50;;;;;;;12.63;3.35;;;;;;;-3.15;68.45;102167.16;10418159;28;20042;-77
2022/03/19 18:44:52;;;;;;;8.30;2.63;;;;;;;-3.66;68.74;102072.19;10418419;28;20038;-77
2022/03/19 18:49:53;;;;;;;9.80;3.42;;;;;;;-3.75;69.09;102062.84;10418403;28;20426;-77
2022/03/19 18:54:56;;;;;;;11.75;4.13;;;;;;;-3.46;69.08;102098.56;10418371;28;20057;-76
2022/03/19 18:59:57;;;;;;;6.50;3.53;;;;;;;-4.57;68.94;101914.16;10417860;28;20037;-76
2022/03/19 19:04:59;;;;;;;6.60;2.67;;;;;;;-3.03;69.06;102172.06;10416953;28;20598;-76
2022/03/19 19:10:00;;;;;;;10.20;2.63;;;;;;;-3.22;69.60;102143.91;10417384;28;20118;-77
2022/03/19 19:15:01;;;;;;;5.28;2.30;;;;;;;-2.86;69.74;102216.75;10405630;28;20034;-76
2022/03/19 19:20:03;;;;;;;8.95;3.05;;;;;;;-2.86;69.63;102195.09;10382306;28;20046;-76
2022/03/19 19:25:05;;;;;;;9.15;3.28;;;;;;;-2.85;69.74;102202.84;10416840;28;20084;-77
2022/03/19 19:30:06;;;;;;;10.05;3.05;;;;;;;-2.66;70.09;102225.81;10396985;28;20143;-77
2022/03/19 19:35:08;;;;;;;7.03;3.15;;;;;;;-3.48;69.83;102089.09;10375339;28;20429;-77
2022/03/19 19:40:10;;;;;;;13.65;5.97;;;;;;;-2.77;70.10;102208.72;10389901;28;20073;-77
2022/03/19 19:45:15;;;;;;;12.85;4.15;;;;;;;-2.66;70.60;102229.28;10377027;28;20092;-77
2022/03/19 19:50:18;;;;;;;7.68;3.80;;;;;;;-2.97;70.84;102174.53;10414006;28;20122;-77
2022/03/19 19:55:19;;;;;;;9.47;3.27;;;;;;;-3.18;70.93;102136.03;10393135;28;20132;-77
2022/03/19 20:00:21;;;;;;;6.50;3.03;;;;;;;-3.64;70.66;102054.81;10412705;28;20128;-77
2022/03/19 20:05:22;;;;;;;7.53;3.35;;;;;;;-3.30;71.03;102095.59;10401850;28;20062;-78
2022/03/19 20:10:23;;;;;;;11.57;5.75;;;;;;;-2.73;70.86;102185.25;10390158;28;20064;-76
2022/03/19 20:15:24;;;;;;;64.85;19.63;;;;;;;-2.61;70.62;102211.81;10394054;28;20069;-78
2022/03/19 20:20:27;;;;;;;65.30;23.90;;;;;;;-2.43;71.30;102244.31;10394008;28;20034;-76
2022/03/19 20:25:28;;;;;;;53.60;19.42;;;;;;;-2.49;71.04;102200.25;10395860;28;20064;-78
2022/03/19 20:30:30;;;;;;;58.20;21.88;;;;;;;-2.34;71.17;102204.19;10391882;28;20041;-77
2022/03/19 20:35:32;;;;;;;20.05;6.72;;;;;;;-2.64;71.12;102144.22;10396915;28;20132;-77
2022/03/19 20:40:35;;;;;;;15.80;6.72;;;;;;;-2.32;71.25;102199.81;10412438;28;20045;-77
2022/03/19 20:45:36;;;;;;;30.02;13.50;;;;;;;-2.74;71.99;102140.16;10413810;28;20076;-78
2022/03/19 20:50:38;;;;;;;26.10;11.27;;;;;;;-2.79;71.99;102135.06;10411932;28;20492;-77
2022/03/19 20:55:39;;;;;;;22.80;10.10;;;;;;;-2.39;71.84;102191.31;10413515;28;20095;-78
2022/03/19 21:00:40;;;;;;;14.23;7.78;;;;;;;-2.93;71.54;102095.56;10413091;28;20037;-78
2022/03/19 21:05:41;;;;;;;10.63;4.30;;;;;;;-2.33;71.41;102179.91;10413596;28;20148;-79
2022/03/19 21:11:38;;;;;;;9.00;4.35;;;;;;;-2.73;71.64;102107.19;10413625;28;20124;-77
2022/03/19 21:16:03;;;;;;;13.40;4.43;;;;;;;-2.41;71.47;102151.44;10413721;28;20038;-79
2022/03/19 21:21:06;;;;;;;7.10;4.18;;;;;;;-3.44;72.04;101986.78;10412916;28;20033;-77
2022/03/19 21:26:07;;;;;;;9.70;5.40;;;;;;;-2.51;72.52;102129.19;10412235;28;20084;-77
2022/03/19 21:31:10;;;;;;;13.50;6.88;;;;;;;-3.28;72.21;101985.53;10412598;28;20072;-77
2022/03/19 21:36:13;;;;;;;8.57;3.90;;;;;;;-2.64;72.49;102096.56;10412240;28;20044;-78
2022/03/19 21:41:14;;;;;;;7.45;4.10;;;;;;;-2.40;72.37;102160.09;10412804;28;20072;-78
2022/03/19 21:46:15;;;;;;;34.58;16.05;;;;;;;-2.70;72.33;102131.38;10411753;28;20140;-78
2022/03/19 21:51:16;;;;;;;34.08;16.02;;;;;;;-3.83;71.77;101973.88;10411826;28;20042;-78
2022/03/19 21:56:17;;;;;;;16.30;7.07;;;;;;;-2.98;72.70;102154.63;10412392;28;20069;-78
2022/03/19 22:01:18;;;;;;;15.80;6.10;;;;;;;-3.37;73.15;102130.44;10413211;28;20095;-78
2022/03/19 22:06:23;;;;;;;7.00;3.88;;;;;;;-3.38;73.29;102154.69;10412677;28;20072;-77
2022/03/19 22:11:25;;;;;;;11.13;5.13;;;;;;;-4.55;73.40;101961.63;10414793;28;20124;-78
2022/03/19 22:16:26;;;;;;;13.57;4.95;;;;;;;-4.56;73.65;101949.56;10419503;28;20049;-77
2022/03/19 22:21:27;;;;;;;6.82;3.88;;;;;;;-3.50;73.24;102114.25;10418690;28;20037;-77
2022/03/19 22:26:28;;;;;;;10.88;4.90;;;;;;;-4.19;73.30;102002.38;10420062;28;20174;-77
2022/03/19 22:31:29;;;;;;;12.70;4.20;;;;;;;-3.53;72.97;102140.28;10418688;28;20063;-77
2022/03/19 22:36:33;;;;;;;20.35;4.85;;;;;;;-4.23;73.49;102028.44;10413275;28;20055;-77
2022/03/19 22:41:34;;;;;;;12.85;6.28;;;;;;;-3.52;73.74;102147.22;10385783;28;20049;-77
2022/03/19 22:46:35;;;;;;;12.77;4.65;;;;;;;-3.68;74.21;102151.88;10377351;28;20046;-79
2022/03/19 22:51:37;;;;;;;11.45;3.60;;;;;;;-4.26;74.53;102065.66;10377461;28;20140;-77
2022/03/19 22:56:37;;;;;;;17.55;6.60;;;;;;;-3.68;74.63;102150.16;10376913;28;20045;-77
2022/03/19 23:01:39;;;;;;;15.18;6.60;;;;;;;-3.88;74.27;102089.97;10375613;28;20383;-76
2022/03/19 23:06:40;;;;;;;26.08;11.85;;;;;;;-4.29;74.23;102012.97;10376652;28;20042;-77
2022/03/19 23:11:42;;;;;;;13.45;4.68;;;;;;;-3.28;74.55;102161.41;10376700;28;20045;-77
2022/03/19 23:16:43;;;;;;;11.15;5.72;;;;;;;-3.26;74.14;102160.47;10375539;28;20033;-77
2022/03/19 23:21:43;;;;;;;15.55;4.20;;;;;;;-3.07;73.72;102160.91;10375296;28;20125;-77
2022/03/19 23:26:44;;;;;;;11.55;6.38;;;;;;;-3.11;73.48;102168.78;10375259;28;20592;-77
2022/03/19 23:31:45;;;;;;;13.15;4.90;;;;;;;-3.37;73.96;102123.47;10375700;28;20468;-77
2022/03/19 23:36:46;;;;;;;12.30;4.15;;;;;;;-3.19;73.50;102161.19;10375853;28;20042;-77
2022/03/19 23:41:47;;;;;;;8.35;3.95;;;;;;;-3.84;73.44;102068.25;10375291;28;20046;-77
2022/03/19 23:46:48;;;;;;;9.40;3.40;;;;;;;-3.76;73.38;102109.63;10373656;28;20045;-77